Amherst, OH (44001)

8:28 PM EDT on September 02, 2015 (GMT -0400)
South Amherst - WD8CXB | | Change Station
CLOSE
Current Station
Personal Weather Station
Location: South Amherst, OH
Elevation: 748 ft
Nearby Weather Stations

Elev 748 ft 41.36 °N, 82.23 °W | Updated 3 minutes ago

Clear
Clear
78.4 °F
Feels Like 81 °F
N
0.0
Wind Variable Wind from North
Gusts 0.0 mph

Today
High -- | Low -- °F
--% Chance of Precip.
Yesterday
High -- | Low -- °F
Precip. -- in
6:56 AM 8:00 PM
Waning Gibbous, 76% visible
Pressure 29.97 in
Visibility 8.0 miles
Clouds Clear
Heat Index 81 °F
Dew Point 74 °F
Humidity 87%
Rainfall 0.00 in
Snow Depth Not available.
UV 0 out of 12
Pollen 10.90 out of 12
Air Quality Not available.
Flu Activity Not available.
METAR KLPR 022353Z AUTO 25003KT 8SM CLR 26/22 A2998 RMK AO2 SLP148 T02560217 10306 20256 56006 TSNO
Pressure 29.97 in
Visibility 8.0 miles
Clouds Clear
Heat Index 81 °F
Dew Point 74 °F
Humidity 87%
Rainfall 0.00 in
Snow Depth Not available.
UV 0 out of 12
Pollen 10.90 out of 12
Air Quality Not available.
Flu Activity Not available.
METAR KLPR 022353Z AUTO 25003KT 8SM CLR 26/22 A2998 RMK AO2 SLP148 T02560217 10306 20256 56006 TSNO

10-Day Weather Forecast

×

Almanac

Astronomy

Sep. 02, 2015 Rise Set
Actual Time
Civil Twilight
Nautical Twilight
Astronomical Twilight
Moon
Length of Visible Light
Length of Day
Tomorrow will be .
, % of the Moon is Illuminated

Today's Extremes

State Highs State Lows

Community

WunderPhotos

Upload Photos

1,851,849 photos uploaded!

WunderBlogs® & News

Nearby

Air Quality

  Air Quality AQ Index Pollutant
Not available.

Snow Depth

Station Depth Elevation

Earthquake Activity

City Distance Mag. Time & Date
Minimum magnitude displayed is 2.5.

Coastal Water Temperatures

Place Temperature

Stations

Nearby Weather Stations

Station Location Temp. Windchill Dew Point Humidity Wind Precip. Elev Updated Type